createdAt,value
2018-05-27T00:02:06.596Z,72.40
2018-05-27T00:04:34.820Z,71.90
2018-05-27T00:07:02.264Z,71.70
2018-05-27T00:09:29.716Z,72.00
2018-05-27T00:11:57.156Z,72.50
2018-05-27T00:14:24.612Z,72.60
2018-05-27T00:16:52.065Z,72.60
2018-05-27T00:19:19.532Z,72.50
2018-05-27T00:21:46.976Z,73.00
2018-05-27T00:24:14.446Z,73.00
2018-05-27T00:26:41.887Z,72.80
2018-05-27T00:29:09.322Z,72.30
2018-05-27T00:31:37.541Z,72.40
2018-05-27T00:34:04.999Z,71.80
2018-05-27T00:36:32.440Z,72.20
2018-05-27T00:38:59.899Z,72.80
2018-05-27T00:41:27.346Z,72.30
2018-05-27T00:43:54.803Z,72.70
2018-05-27T00:46:22.247Z,72.70
2018-05-27T00:48:50.463Z,73.40
2018-05-27T00:51:17.967Z,73.40
2018-05-27T00:54:00.289Z,74.00
2018-05-27T00:56:28.514Z,74.20
2018-05-27T00:58:55.974Z,74.10
2018-05-27T01:01:23.431Z,74.20
2018-05-27T01:03:50.880Z,74.60
2018-05-27T01:06:18.311Z,74.60
2018-05-27T01:08:45.773Z,74.30
2018-05-27T01:11:13.228Z,74.30
2018-05-27T01:13:40.688Z,75.10
2018-05-27T01:16:08.123Z,75.10
2018-05-27T01:18:35.587Z,75.80
2018-05-27T01:21:03.043Z,75.30
2018-05-27T01:23:30.513Z,74.30
2018-05-27T01:25:57.973Z,73.80
2018-05-27T01:28:25.582Z,72.70
2018-05-27T01:30:53.014Z,72.60
2018-05-27T01:33:20.472Z,72.80
2018-05-27T01:35:47.920Z,71.90
2018-05-27T01:38:15.375Z,71.90
2018-05-27T01:40:42.829Z,72.10
2018-05-27T01:43:10.287Z,72.80
2018-05-27T01:45:37.720Z,73.30
2018-05-27T01:48:05.170Z,73.60
2018-05-27T01:50:32.626Z,73.60
2018-05-27T01:53:00.073Z,74.30
2018-05-27T01:55:31.211Z,74.90
2018-05-27T01:57:59.433Z,74.10
2018-05-27T02:00:26.891Z,74.00
2018-05-27T02:02:54.344Z,74.20
2018-05-27T02:05:21.804Z,74.30
2018-05-27T02:07:49.255Z,74.50
2018-05-27T02:10:16.700Z,74.60
2018-05-27T02:12:44.153Z,74.40
2018-05-27T02:15:11.602Z,74.20
2018-05-27T02:17:39.178Z,74.50
2018-05-27T02:20:07.383Z,74.80
2018-05-27T02:22:34.848Z,74.60
2018-05-27T02:25:02.296Z,75.40
2018-05-27T02:27:31.260Z,73.70
2018-05-27T02:29:58.703Z,73.60
2018-05-27T02:32:26.154Z,73.70
2018-05-27T02:34:53.629Z,73.30
2018-05-27T02:37:21.071Z,73.40
2018-05-27T02:39:48.557Z,73.40
2018-05-27T02:42:16.051Z,74.40
2018-05-27T02:44:44.271Z,76.00
2018-05-27T02:47:11.715Z,75.30
2018-05-27T02:49:39.163Z,75.40
2018-05-27T02:52:06.610Z,74.60
2018-05-27T02:54:34.061Z,74.60
2018-05-27T02:57:02.270Z,74.80
2018-05-27T02:59:29.736Z,74.80
2018-05-27T03:01:57.184Z,74.00
2018-05-27T03:04:24.644Z,73.00
2018-05-27T03:06:52.091Z,73.10
2018-05-27T03:09:19.552Z,75.30
2018-05-27T03:11:47.009Z,74.80
2018-05-27T03:14:14.468Z,74.60
2018-05-27T03:16:41.915Z,74.20
2018-05-27T03:19:09.366Z,73.70
2018-05-27T03:21:36.813Z,73.60
2018-05-27T03:24:05.511Z,73.80
2018-05-27T03:26:32.949Z,74.00
2018-05-27T03:29:00.407Z,73.70
2018-05-27T03:31:27.891Z,74.20
2018-05-27T03:33:55.330Z,73.70
2018-05-27T03:36:22.776Z,73.00
2018-05-27T03:38:51.006Z,72.60
2018-05-27T03:41:18.458Z,72.50
2018-05-27T03:43:45.909Z,72.60
2018-05-27T03:46:14.110Z,72.70
2018-05-27T03:48:41.569Z,73.30
2018-05-27T03:51:09.032Z,74.80
2018-05-27T03:53:36.497Z,74.50
2018-05-27T03:56:04.713Z,73.90
2018-05-27T03:58:32.158Z,73.90
2018-05-27T04:00:59.619Z,73.50
2018-05-27T04:03:27.879Z,72.90
2018-05-27T04:06:07.174Z,72.60
2018-05-27T04:08:35.367Z,73.90
2018-05-27T04:11:03.583Z,74.60
2018-05-27T04:13:31.043Z,74.40
2018-05-27T04:15:58.475Z,74.80
2018-05-27T04:18:25.932Z,75.10
2018-05-27T04:20:53.382Z,75.70
2018-05-27T04:23:21.588Z,76.20
2018-05-27T04:25:49.036Z,76.20
2018-05-27T04:28:16.474Z,77.20
2018-05-27T04:30:43.918Z,78.00
2018-05-27T04:33:12.126Z,78.30
2018-05-27T04:35:39.581Z,78.20
2018-05-27T04:38:07.024Z,77.80
2018-05-27T04:40:34.509Z,77.90
2018-05-27T04:43:02.031Z,78.30
2018-05-27T04:45:29.552Z,79.00
2018-05-27T04:47:57.083Z,78.80
2018-05-27T04:50:24.540Z,79.10
2018-05-27T04:52:51.977Z,79.70
2018-05-27T04:55:19.451Z,79.30
2018-05-27T04:57:46.902Z,79.50
2018-05-27T05:00:14.347Z,79.90
2018-05-27T05:02:41.801Z,80.20
2018-05-27T05:05:09.259Z,80.30
2018-05-27T05:07:36.692Z,80.20
2018-05-27T05:10:04.919Z,79.60
2018-05-27T05:12:32.372Z,79.50
2018-05-27T05:14:59.886Z,78.80
2018-05-27T05:17:27.300Z,78.80
2018-05-27T05:19:54.746Z,77.20
2018-05-27T05:22:22.194Z,76.60
2018-05-27T05:24:49.769Z,75.90
2018-05-27T05:27:17.213Z,74.70
2018-05-27T05:29:44.678Z,74.50
2018-05-27T05:32:12.111Z,73.00
2018-05-27T05:34:39.555Z,72.60
2018-05-27T05:37:07.082Z,72.10
2018-05-27T05:39:34.522Z,71.60
2018-05-27T05:42:01.971Z,69.90
2018-05-27T05:44:29.403Z,68.80
2018-05-27T05:46:56.879Z,69.50
2018-05-27T05:49:24.323Z,68.90
2018-05-27T05:51:51.762Z,69.20
2018-05-27T05:54:20.020Z,67.30
2018-05-27T05:56:47.537Z,67.30
2018-05-27T05:59:15.037Z,67.90
2018-05-27T06:01:42.508Z,65.30
2018-05-27T06:04:09.991Z,65.00
2018-05-27T06:06:37.480Z,64.60
2018-05-27T06:09:05.696Z,63.90
2018-05-27T06:11:33.159Z,63.80
2018-05-27T06:14:00.586Z,64.00
2018-05-27T06:16:28.046Z,62.30
2018-05-27T06:18:56.261Z,64.80
2018-05-27T06:21:23.711Z,64.70
2018-05-27T06:23:51.724Z,62.90
2018-05-27T06:26:19.952Z,62.00
2018-05-27T06:28:47.432Z,61.90
2018-05-27T06:31:14.928Z,60.00
2018-05-27T06:33:42.384Z,60.00
2018-05-27T06:36:10.599Z,63.50
2018-05-27T06:38:38.098Z,63.50
2018-05-27T06:41:05.532Z,59.60
2018-05-27T06:43:32.972Z,59.90
2018-05-27T06:46:00.432Z,59.90
2018-05-27T06:48:27.899Z,60.40
2018-05-27T06:50:55.347Z,57.90
2018-05-27T06:53:22.796Z,58.80
2018-05-27T06:55:50.254Z,58.20
2018-05-27T06:58:17.697Z,59.50
2018-05-27T07:00:45.162Z,59.20
2018-05-27T07:03:12.612Z,58.10
2018-05-27T07:05:40.052Z,59.20
2018-05-27T07:08:08.277Z,58.80
2018-05-27T07:10:36.212Z,58.70
2018-05-27T07:13:04.429Z,56.50
2018-05-27T07:15:31.858Z,56.40
2018-05-27T07:17:59.308Z,57.60
2018-05-27T07:20:26.753Z,56.40
2018-05-27T07:22:54.235Z,58.90
2018-05-27T07:25:21.690Z,60.00
2018-05-27T07:27:49.143Z,59.20
2018-05-27T07:30:16.596Z,59.40
2018-05-27T07:32:44.031Z,57.00
2018-05-27T07:35:11.484Z,58.80
2018-05-27T07:37:38.920Z,56.90
2018-05-27T07:40:07.118Z,58.50
2018-05-27T07:42:34.572Z,56.30
2018-05-27T07:45:02.023Z,58.50
2018-05-27T07:47:29.467Z,58.10
2018-05-27T07:49:57.689Z,59.20
2018-05-27T07:52:25.548Z,56.80
2018-05-27T07:54:53.023Z,57.30
2018-05-27T07:57:20.480Z,59.00
2018-05-27T07:59:47.937Z,61.60
2018-05-27T08:02:15.410Z,60.10
2018-05-27T08:04:42.918Z,60.80
2018-05-27T08:07:10.432Z,62.50
2018-05-27T08:09:37.836Z,58.00
2018-05-27T08:12:05.875Z,57.40
2018-05-27T08:14:34.069Z,55.70
2018-05-27T08:17:01.518Z,55.60
2018-05-27T08:19:28.962Z,58.60
2018-05-27T08:21:57.172Z,59.90
2018-05-27T08:24:24.624Z,59.80
2018-05-27T08:26:52.066Z,60.80
2018-05-27T08:29:19.517Z,58.00
2018-05-27T08:31:46.957Z,60.00
2018-05-27T08:34:15.175Z,57.40
2018-05-27T08:36:42.624Z,57.50
2018-05-27T08:39:10.866Z,55.30
2018-05-27T08:41:39.071Z,55.10
2018-05-27T08:44:06.528Z,56.00
2018-05-27T08:46:33.988Z,55.10
2018-05-27T08:49:02.241Z,52.20
2018-05-27T08:51:29.654Z,54.60
2018-05-27T08:53:57.086Z,55.20
2018-05-27T08:56:24.541Z,55.10
2018-05-27T08:58:51.997Z,54.80
2018-05-27T09:01:20.339Z,51.00
2018-05-27T09:03:48.490Z,50.30
2018-05-27T09:06:15.873Z,50.30
2018-05-27T09:08:43.337Z,55.70
2018-05-27T09:11:10.834Z,52.10
2018-05-27T09:13:38.290Z,54.00
2018-05-27T09:16:05.736Z,53.70
2018-05-27T09:18:33.190Z,49.40
2018-05-27T09:21:00.635Z,53.90
2018-05-27T09:23:28.090Z,49.80
2018-05-27T09:25:55.560Z,49.20
2018-05-27T09:28:23.032Z,50.00
2018-05-27T09:30:50.558Z,48.80
2018-05-27T09:33:17.928Z,51.50
2018-05-27T09:35:45.383Z,52.60
2018-05-27T09:38:12.834Z,48.20
2018-05-27T09:40:41.050Z,46.90
2018-05-27T09:43:08.488Z,46.90
2018-05-27T09:45:35.949Z,47.00
2018-05-27T09:48:03.387Z,46.60
2018-05-27T09:50:30.873Z,46.70
2018-05-27T09:52:58.322Z,43.80
2018-05-27T09:55:25.774Z,46.40
2018-05-27T09:57:53.254Z,45.60
2018-05-27T10:00:20.694Z,44.40
2018-05-27T10:02:48.158Z,45.00
2018-05-27T10:05:15.599Z,48.70
2018-05-27T10:07:43.097Z,44.50
2018-05-27T10:10:11.312Z,46.80
2018-05-27T10:12:38.849Z,46.80
2018-05-27T10:15:06.344Z,44.30
2018-05-27T10:17:33.824Z,45.40
2018-05-27T10:20:01.327Z,44.80
2018-05-27T10:22:28.795Z,46.90
2018-05-27T10:24:56.279Z,45.30
2018-05-27T10:27:23.733Z,46.30
2018-05-27T10:29:51.175Z,44.20
2018-05-27T10:32:18.697Z,44.70
2018-05-27T10:34:46.131Z,45.60
2018-05-27T10:37:14.346Z,44.70
2018-05-27T10:39:41.787Z,44.70
2018-05-27T10:42:09.223Z,44.00
2018-05-27T10:44:37.447Z,43.70
2018-05-27T10:47:04.894Z,43.60
2018-05-27T10:49:32.349Z,45.00
2018-05-27T10:51:59.802Z,45.10
2018-05-27T10:54:27.259Z,42.80
2018-05-27T10:56:54.709Z,41.90
2018-05-27T10:59:22.167Z,43.00
2018-05-27T11:01:49.625Z,41.60
2018-05-27T11:04:17.079Z,40.40
2018-05-27T11:06:44.524Z,41.90
2018-05-27T11:09:11.972Z,40.60
2018-05-27T11:11:39.406Z,42.00
2018-05-27T11:14:07.628Z,42.30
2018-05-27T11:16:35.086Z,42.30
2018-05-27T11:19:02.564Z,40.60
2018-05-27T11:21:30.027Z,41.40
2018-05-27T11:23:57.459Z,41.80
2018-05-27T11:26:24.922Z,40.20
2018-05-27T11:28:52.380Z,40.40
2018-05-27T11:31:19.859Z,41.10
2018-05-27T11:33:47.304Z,42.10
2018-05-27T11:36:14.788Z,40.70
2018-05-27T11:38:42.257Z,40.30
2018-05-27T11:41:10.474Z,39.50
2018-05-27T11:43:37.936Z,39.40
2018-05-27T11:46:05.370Z,41.10
2018-05-27T11:48:32.912Z,40.20
2018-05-27T11:51:01.116Z,38.80
2018-05-27T11:53:28.569Z,38.90
2018-05-27T11:55:56.022Z,38.10
2018-05-27T11:58:23.460Z,39.50
2018-05-27T12:00:50.920Z,39.60
2018-05-27T12:03:18.394Z,39.90
2018-05-27T12:05:45.832Z,41.00
2018-05-27T12:08:13.288Z,40.70
2018-05-27T12:10:40.885Z,40.90
2018-05-27T12:13:08.349Z,42.00
2018-05-27T12:15:35.807Z,41.00
2018-05-27T12:18:03.257Z,43.20
2018-05-27T12:20:30.735Z,42.80
2018-05-27T12:22:58.240Z,43.70
2018-05-27T12:25:25.686Z,44.20
2018-05-27T12:27:53.123Z,44.30
2018-05-27T12:30:21.346Z,43.50
2018-05-27T12:32:48.796Z,43.40
2018-05-27T12:35:16.268Z,43.50
2018-05-27T12:37:43.703Z,42.70
2018-05-27T12:40:11.159Z,42.30
2018-05-27T12:42:38.608Z,41.30
2018-05-27T12:45:06.063Z,39.70
2018-05-27T12:47:33.610Z,40.00
2018-05-27T12:50:01.065Z,38.20
2018-05-27T12:52:29.278Z,40.40
2018-05-27T12:54:56.720Z,40.10
2018-05-27T12:57:24.170Z,40.00
2018-05-27T12:59:51.614Z,39.60
2018-05-27T13:02:19.164Z,39.10
2018-05-27T13:04:47.379Z,41.20
2018-05-27T13:07:14.827Z,41.10
2018-05-27T13:09:42.282Z,40.20
2018-05-27T13:12:09.747Z,40.00
2018-05-27T13:14:37.193Z,39.60
2018-05-27T13:17:05.407Z,38.60
2018-05-27T13:19:32.850Z,38.60
2018-05-27T13:22:01.133Z,39.50
2018-05-27T13:24:28.589Z,39.00
2018-05-27T13:26:56.029Z,39.30
2018-05-27T13:29:23.480Z,39.30
2018-05-27T13:31:50.921Z,40.10
2018-05-27T13:34:18.369Z,40.10
2018-05-27T13:36:45.816Z,39.40
2018-05-27T13:39:13.272Z,40.30
2018-05-27T13:41:40.731Z,38.70
2018-05-27T13:44:09.025Z,39.90
2018-05-27T13:46:36.457Z,39.90
2018-05-27T13:49:03.917Z,41.20
2018-05-27T13:51:32.128Z,40.80
2018-05-27T13:53:59.577Z,40.80
2018-05-27T13:56:27.047Z,40.90
2018-05-27T13:58:54.501Z,41.30
2018-05-27T14:01:21.959Z,40.90
2018-05-27T14:03:49.401Z,40.60
2018-05-27T14:06:16.846Z,41.20
2018-05-27T14:08:44.297Z,41.20
2018-05-27T14:11:11.734Z,41.40
2018-05-27T14:13:39.937Z,42.00
2018-05-27T14:16:07.388Z,42.00
2018-05-27T14:18:34.832Z,43.70
2018-05-27T14:21:02.288Z,42.50
2018-05-27T14:23:29.747Z,43.10
2018-05-27T14:25:57.951Z,43.20
2018-05-27T14:28:25.522Z,43.20
2018-05-27T14:30:52.962Z,42.80
2018-05-27T14:33:20.445Z,42.40
2018-05-27T14:35:47.858Z,43.10
2018-05-27T14:38:15.312Z,44.80
2018-05-27T14:40:42.771Z,45.80
2018-05-27T14:43:10.230Z,46.90
2018-05-27T14:45:37.676Z,47.20
2018-05-27T14:48:05.120Z,47.70
2018-05-27T14:50:33.341Z,48.60
2018-05-27T14:53:00.817Z,47.90
2018-05-27T14:55:28.258Z,48.60
2018-05-27T14:57:55.719Z,48.70
2018-05-27T15:00:23.170Z,48.60
2018-05-27T15:02:50.624Z,46.60
2018-05-27T15:05:18.081Z,48.90
2018-05-27T15:07:45.536Z,46.90
2018-05-27T15:10:12.976Z,47.20
2018-05-27T15:12:40.426Z,47.70
2018-05-27T15:15:07.867Z,48.40
2018-05-27T15:17:35.328Z,48.80
2018-05-27T15:20:02.791Z,49.10
2018-05-27T15:22:30.262Z,49.00
2018-05-27T15:24:57.728Z,49.60
2018-05-27T15:27:25.195Z,49.00
2018-05-27T15:29:52.651Z,49.00
2018-05-27T15:32:20.132Z,49.70
2018-05-27T15:34:47.591Z,49.70
2018-05-27T15:37:15.090Z,50.40
2018-05-27T15:39:42.475Z,50.60
2018-05-27T15:42:09.913Z,50.90
2018-05-27T15:44:37.350Z,50.60
2018-05-27T15:47:04.816Z,48.30
2018-05-27T15:49:32.268Z,49.00
2018-05-27T15:51:59.728Z,49.80
2018-05-27T15:54:27.184Z,50.00
2018-05-27T15:56:54.635Z,49.30
2018-05-27T15:59:22.084Z,49.40
2018-05-27T16:01:50.327Z,49.40
2018-05-27T16:04:17.781Z,49.40
2018-05-27T16:06:45.229Z,49.00
2018-05-27T16:09:12.659Z,50.10
2018-05-27T16:11:40.094Z,49.00
2018-05-27T16:14:08.318Z,49.40
2018-05-27T16:16:35.818Z,49.90
2018-05-27T16:19:03.270Z,49.20
2018-05-27T16:21:31.487Z,48.90
2018-05-27T16:23:58.944Z,48.80
2018-05-27T16:26:26.395Z,48.10
2018-05-27T16:28:53.837Z,48.30
2018-05-27T16:31:21.278Z,48.70
2018-05-27T16:33:48.731Z,48.50
2018-05-27T16:36:16.186Z,48.80
2018-05-27T16:38:43.698Z,47.80
2018-05-27T16:41:11.141Z,47.50
2018-05-27T16:43:38.610Z,47.40
2018-05-27T16:46:06.058Z,47.40
2018-05-27T16:48:33.526Z,47.00
2018-05-27T16:51:00.982Z,47.70
2018-05-27T16:53:28.453Z,47.90
2018-05-27T16:55:55.891Z,47.30
2018-05-27T16:58:23.358Z,48.10
2018-05-27T17:00:50.801Z,47.00
2018-05-27T17:03:18.261Z,46.80
2018-05-27T17:05:45.721Z,47.00
2018-05-27T17:08:13.176Z,46.90
2018-05-27T17:10:40.624Z,47.10
2018-05-27T17:13:08.091Z,48.00
2018-05-27T17:15:35.564Z,48.30
2018-05-27T17:18:03.026Z,49.40
2018-05-27T17:20:30.475Z,49.00
2018-05-27T17:22:57.925Z,49.20
2018-05-27T17:25:25.376Z,49.90
2018-05-27T17:27:52.834Z,50.40
2018-05-27T17:30:20.281Z,50.50
2018-05-27T17:32:47.758Z,51.50
2018-05-27T17:35:15.194Z,51.10
2018-05-27T17:37:42.651Z,51.30
2018-05-27T17:40:10.122Z,50.10
2018-05-27T17:42:37.575Z,48.70
2018-05-27T17:45:05.025Z,48.80
2018-05-27T17:47:32.488Z,48.20
2018-05-27T17:49:59.945Z,48.70
2018-05-27T17:52:27.394Z,47.80
2018-05-27T17:54:55.407Z,48.20
2018-05-27T17:57:23.629Z,47.70
2018-05-27T17:59:51.092Z,47.80
2018-05-27T18:02:19.514Z,48.40
2018-05-27T18:04:47.728Z,48.50
2018-05-27T18:07:15.171Z,48.40
2018-05-27T18:09:42.612Z,49.00
2018-05-27T18:12:10.069Z,49.00
2018-05-27T18:14:37.526Z,49.30
2018-05-27T18:17:04.981Z,49.70
2018-05-27T18:19:32.562Z,49.90
2018-05-27T18:22:00.035Z,50.10
2018-05-27T18:24:27.496Z,50.20
2018-05-27T18:26:54.963Z,50.50
2018-05-27T18:29:22.418Z,50.90
2018-05-27T18:31:49.902Z,51.50
2018-05-27T18:34:17.324Z,52.10
2018-05-27T18:36:44.768Z,52.40
2018-05-27T18:39:12.228Z,52.60
2018-05-27T18:41:39.690Z,53.00
2018-05-27T18:44:07.123Z,53.20
2018-05-27T18:46:34.584Z,53.40
2018-05-27T18:49:02.111Z,53.20
2018-05-27T18:51:30.315Z,54.20
2018-05-27T18:53:57.774Z,53.50
2018-05-27T18:56:25.229Z,53.90
2018-05-27T18:58:52.682Z,54.30
2018-05-27T19:01:20.153Z,54.50
2018-05-27T19:03:47.587Z,54.60
2018-05-27T19:06:15.044Z,54.40
2018-05-27T19:08:42.500Z,54.80
2018-05-27T19:11:09.983Z,55.20
2018-05-27T19:13:37.437Z,55.10
2018-05-27T19:16:04.895Z,55.20
2018-05-27T19:18:32.365Z,55.60
2018-05-27T19:21:00.582Z,56.10
2018-05-27T19:23:28.807Z,56.20
2018-05-27T19:25:56.265Z,56.00
2018-05-27T19:28:23.728Z,56.10
2018-05-27T19:30:51.189Z,55.60
2018-05-27T19:33:18.643Z,55.70
2018-05-27T19:35:46.096Z,56.30
2018-05-27T19:38:13.553Z,56.90
2018-05-27T19:40:40.994Z,56.60
2018-05-27T19:43:08.480Z,57.10
2018-05-27T19:45:35.923Z,57.10
2018-05-27T19:48:03.385Z,57.70
2018-05-27T19:50:30.848Z,57.50
2018-05-27T19:52:58.301Z,58.30
2018-05-27T19:55:25.754Z,59.10
2018-05-27T19:57:53.211Z,59.60
2018-05-27T20:00:20.663Z,60.70
2018-05-27T20:02:48.121Z,62.00
2018-05-27T20:05:15.567Z,62.40
2018-05-27T20:07:43.016Z,62.90
2018-05-27T20:10:10.474Z,64.00
2018-05-27T20:12:37.924Z,64.60
2018-05-27T20:15:05.387Z,64.40
2018-05-27T20:17:32.851Z,64.60
2018-05-27T20:20:00.305Z,64.70
2018-05-27T20:22:27.746Z,64.50
2018-05-27T20:24:55.185Z,64.20
2018-05-27T20:27:22.634Z,64.10
2018-05-27T20:29:50.088Z,64.40
2018-05-27T20:32:18.542Z,65.00
2018-05-27T20:34:45.994Z,64.90
2018-05-27T20:37:13.445Z,65.40
2018-05-27T20:39:40.927Z,65.50
2018-05-27T20:42:08.390Z,65.40
2018-05-27T20:44:36.598Z,66.50
2018-05-27T20:47:04.058Z,65.50
2018-05-27T20:49:32.266Z,66.40
2018-05-27T20:51:59.766Z,66.40
2018-05-27T20:54:27.233Z,65.90
2018-05-27T20:56:54.697Z,66.60
2018-05-27T20:59:22.186Z,66.90
2018-05-27T21:01:49.764Z,66.60
2018-05-27T21:04:17.631Z,66.70
2018-05-27T21:06:45.120Z,67.10
2018-05-27T21:09:12.598Z,67.20
2018-05-27T21:11:40.089Z,67.40
2018-05-27T21:14:07.570Z,67.70
2018-05-27T21:16:35.005Z,68.40
2018-05-27T21:19:03.049Z,68.60
2018-05-27T21:21:30.495Z,67.90
2018-05-27T21:23:57.950Z,67.90
2018-05-27T21:26:25.395Z,68.20
2018-05-27T21:28:52.889Z,68.20
2018-05-27T21:31:20.342Z,68.90
2018-05-27T21:33:47.835Z,69.10
2018-05-27T21:36:15.329Z,68.90
2018-05-27T21:38:42.802Z,70.50
2018-05-27T21:41:10.249Z,69.70
2018-05-27T21:43:37.712Z,70.50
2018-05-27T21:46:05.228Z,70.90
2018-05-27T21:48:32.629Z,71.10
2018-05-27T21:51:00.077Z,71.00
2018-05-27T21:53:27.527Z,70.20
2018-05-27T21:55:54.993Z,70.80
2018-05-27T21:58:22.454Z,71.30
2018-05-27T22:00:49.898Z,71.50
2018-05-27T22:03:17.349Z,71.90
2018-05-27T22:05:44.807Z,71.90
2018-05-27T22:08:12.251Z,72.20
2018-05-27T22:10:39.698Z,72.10
2018-05-27T22:13:07.921Z,73.20
2018-05-27T22:15:35.359Z,73.20
2018-05-27T22:18:02.829Z,73.20
2018-05-27T22:20:30.271Z,73.30
2018-05-27T22:22:57.719Z,73.50
2018-05-27T22:25:25.172Z,73.80
2018-05-27T22:27:52.665Z,73.70
2018-05-27T22:30:20.066Z,73.60
2018-05-27T22:32:48.307Z,72.60
2018-05-27T22:35:15.749Z,72.50
2018-05-27T22:37:43.208Z,73.00
2018-05-27T22:40:10.674Z,73.40
2018-05-27T22:42:38.123Z,73.70
2018-05-27T22:45:05.588Z,73.70
2018-05-27T22:47:33.052Z,73.60
2018-05-27T22:50:00.505Z,73.50
2018-05-27T22:52:27.955Z,73.20
2018-05-27T22:54:55.397Z,72.20
2018-05-27T22:57:22.860Z,72.40
2018-05-27T22:59:50.314Z,73.70
2018-05-27T23:02:18.167Z,72.40
2018-05-27T23:04:45.640Z,73.10
2018-05-27T23:07:13.095Z,73.40
2018-05-27T23:09:40.544Z,74.10
2018-05-27T23:12:07.984Z,74.90
2018-05-27T23:14:35.468Z,75.40
2018-05-27T23:17:02.935Z,73.30
2018-05-27T23:19:30.426Z,73.60
2018-05-27T23:21:58.627Z,74.90
2018-05-27T23:24:26.109Z,74.90
2018-05-27T23:26:53.548Z,75.60
2018-05-27T23:29:21.020Z,75.90
2018-05-27T23:31:48.474Z,75.90
2018-05-27T23:34:15.921Z,74.80
2018-05-27T23:36:43.394Z,74.60
2018-05-27T23:39:10.829Z,74.60
2018-05-27T23:41:38.270Z,74.80
2018-05-27T23:44:05.723Z,74.80
2018-05-27T23:46:33.231Z,75.00
2018-05-27T23:49:00.677Z,74.80
2018-05-27T23:51:28.135Z,74.80
2018-05-27T23:53:55.596Z,75.00
2018-05-27T23:56:23.048Z,73.80
2018-05-27T23:58:50.508Z,74.30
